This is the latest recevied weather packets stored in our database for station/object XE2G-31. If no packets are shown the sender has not sent any weather packets the latest 10 day(s).
| Time | Temp. | Humidity | Pressure | Rain* | Wind** | Luminosity | Snow |
|---|---|---|---|---|---|---|---|
| 1778268065 | 30° C | 59% | 869 hPa | - | - | - | - |
| 1778267118 | 28.33° C | 63% | 869 hPa | - | - | - | - |
| 1778266171 | 30.56° C | 59% | 869 hPa | - | - | - | - |
| 1778265224 | 28.89° C | 64% | 869 hPa | - | - | - | - |
| 1778264277 | 29.44° C | 63% | 869 hPa | - | - | - | - |
| 1778263331 | 28.89° C | 62% | 870 hPa | - | - | - | - |
| 1778262384 | 30.56° C | 55% | 870 hPa | - | - | - | - |
| 1778260490 | 28.33° C | 59% | 870 hPa | - | - | - | - |
| 1778259543 | 26.11° C | 61% | 870 hPa | - | - | - | - |
| 1778258596 | 26.11° C | 63% | 870 hPa | - | - | - | - |
| 1778257650 | 25° C | 64% | 871 hPa | - | - | - | - |
| 1778256703 | 25.56° C | 66% | 871 hPa | - | - | - | - |
| 1778255756 | 24.44° C | 71% | 871 hPa | - | - | - | - |
| 1778254809 | 22.78° C | 77% | 871 hPa | - | - | - | - |
| 1778253862 | 22.22° C | 79% | 871 hPa | - | - | - | - |
| 1778252915 | 22.22° C | 78% | 871 hPa | - | - | - | - |
| 1778251969 | 21.67° C | 80% | 871 hPa | - | - | - | - |
| 1778251022 | 21.11° C | 83% | 871 hPa | - | - | - | - |
| 1778250075 | 20.56° C | 85% | 871 hPa | - | - | - | - |
| 1778249128 | 20.56° C | 84% | 871 hPa | - | - | - | - |
| 1778248181 | 21.67° C | 81% | 871 hPa | - | - | - | - |
| 1778247235 | 22.78° C | 72% | 871 hPa | - | - | - | - |
| 1778246288 | 20.56° C | 84% | 871 hPa | - | - | - | - |
| 1778245341 | 19.44° C | 89% | 871 hPa | - | - | - | - |
| 1778244394 | 20° C | 88% | 871 hPa | - | - | - | - |
* Rain since midnight (hover to see other rain measurements)
** Current wind speed in m/s (hover to see current wind gust speed)